sensor_id;sensor_type;location;lat;lon;timestamp;temperature;humidity
30764;DHT22;17497;51.476;7.770;2023-04-16T00:24:11;7.50;99.90
30764;DHT22;17497;51.476;7.770;2023-04-16T00:26:37;7.40;99.90
30764;DHT22;17497;51.476;7.770;2023-04-16T00:29:04;7.40;99.90
30764;DHT22;17497;51.476;7.770;2023-04-16T00:31:31;7.40;99.90
30764;DHT22;17497;51.476;7.770;2023-04-16T00:33:58;7.40;99.90
30764;DHT22;17497;51.476;7.770;2023-04-16T00:36:25;7.40;99.90
30764;DHT22;17497;51.476;7.770;2023-04-16T00:38:55;7.40;99.90
30764;DHT22;17497;51.476;7.770;2023-04-16T00:41:22;7.40;99.90
30764;DHT22;17497;51.476;7.770;2023-04-16T00:43:48;7.30;99.90
30764;DHT22;17497;51.476;7.770;2023-04-16T00:46:15;7.30;99.90
30764;DHT22;17497;51.476;7.770;2023-04-16T00:48:42;7.30;99.90
30764;DHT22;17497;51.476;7.770;2023-04-16T00:51:09;7.40;99.90
30764;DHT22;17497;51.476;7.770;2023-04-16T00:53:36;7.40;99.90
30764;DHT22;17497;51.476;7.770;2023-04-16T00:56:04;7.30;99.90
30764;DHT22;17497;51.476;7.770;2023-04-16T00:58:32;7.30;99.90
30764;DHT22;17497;51.476;7.770;2023-04-16T01:00:59;7.40;99.90
30764;DHT22;17497;51.476;7.770;2023-04-16T01:03:28;7.40;99.90
30764;DHT22;17497;51.476;7.770;2023-04-16T01:05:59;7.30;99.90
30764;DHT22;17497;51.476;7.770;2023-04-16T01:08:26;7.30;99.90
30764;DHT22;17497;51.476;7.770;2023-04-16T01:10:53;7.30;99.90
30764;DHT22;17497;51.476;7.770;2023-04-16T01:13:19;7.20;99.90
30764;DHT22;17497;51.476;7.770;2023-04-16T01:15:46;7.30;99.90
30764;DHT22;17497;51.476;7.770;2023-04-16T01:18:16;7.20;99.90
30764;DHT22;17497;51.476;7.770;2023-04-16T01:20:42;7.30;99.90
30764;DHT22;17497;51.476;7.770;2023-04-16T01:23:09;7.30;99.90
30764;DHT22;17497;51.476;7.770;2023-04-16T01:25:37;7.30;99.90
30764;DHT22;17497;51.476;7.770;2023-04-16T01:28:04;7.20;99.90
30764;DHT22;17497;51.476;7.770;2023-04-16T01:30:31;7.20;99.90
30764;DHT22;17497;51.476;7.770;2023-04-16T01:32:57;7.20;99.90
30764;DHT22;17497;51.476;7.770;2023-04-16T01:35:24;7.20;99.90
30764;DHT22;17497;51.476;7.770;2023-04-16T01:37:51;7.20;99.90
30764;DHT22;17497;51.476;7.770;2023-04-16T01:40:18;7.20;99.90
30764;DHT22;17497;51.476;7.770;2023-04-16T01:42:44;7.20;99.90
30764;DHT22;17497;51.476;7.770;2023-04-16T01:45:11;7.20;99.90
30764;DHT22;17497;51.476;7.770;2023-04-16T01:47:37;7.30;99.90
30764;DHT22;17497;51.476;7.770;2023-04-16T01:50:04;7.20;99.90
30764;DHT22;17497;51.476;7.770;2023-04-16T01:52:31;7.20;99.90
30764;DHT22;17497;51.476;7.770;2023-04-16T01:54:58;7.20;99.90
30764;DHT22;17497;51.476;7.770;2023-04-16T01:57:24;7.20;99.90
30764;DHT22;17497;51.476;7.770;2023-04-16T01:59:51;7.20;99.90
30764;DHT22;17497;51.476;7.770;2023-04-16T02:02:18;7.20;99.90
30764;DHT22;17497;51.476;7.770;2023-04-16T02:04:44;7.20;99.90
30764;DHT22;17497;51.476;7.770;2023-04-16T02:07:11;7.20;99.90
30764;DHT22;17497;51.476;7.770;2023-04-16T02:09:39;7.10;99.90
30764;DHT22;17497;51.476;7.770;2023-04-16T02:12:06;7.20;99.90
30764;DHT22;17497;51.476;7.770;2023-04-16T02:14:32;7.30;99.90
30764;DHT22;17497;51.476;7.770;2023-04-16T02:16:59;7.30;99.90
30764;DHT22;17497;51.476;7.770;2023-04-16T02:19:26;7.30;99.90
30764;DHT22;17497;51.476;7.770;2023-04-16T02:21:53;7.30;99.90
30764;DHT22;17497;51.476;7.770;2023-04-16T02:24:20;7.20;99.90
30764;DHT22;17497;51.476;7.770;2023-04-16T02:26:46;7.20;99.90
30764;DHT22;17497;51.476;7.770;2023-04-16T02:29:13;7.20;99.90
30764;DHT22;17497;51.476;7.770;2023-04-16T02:31:41;7.20;99.90
30764;DHT22;17497;51.476;7.770;2023-04-16T02:34:08;7.30;99.90
30764;DHT22;17497;51.476;7.770;2023-04-16T02:36:35;7.30;99.90
30764;DHT22;17497;51.476;7.770;2023-04-16T02:39:01;7.20;99.90
30764;DHT22;17497;51.476;7.770;2023-04-16T02:41:28;7.20;99.90
30764;DHT22;17497;51.476;7.770;2023-04-16T02:43:57;7.20;99.90
30764;DHT22;17497;51.476;7.770;2023-04-16T02:46:23;7.20;99.90
30764;DHT22;17497;51.476;7.770;2023-04-16T02:48:50;7.20;99.90
30764;DHT22;17497;51.476;7.770;2023-04-16T02:51:17;7.20;99.90
30764;DHT22;17497;51.476;7.770;2023-04-16T02:53:43;7.30;99.90
30764;DHT22;17497;51.476;7.770;2023-04-16T02:56:11;7.30;99.90
30764;DHT22;17497;51.476;7.770;2023-04-16T02:58:38;7.30;99.90
30764;DHT22;17497;51.476;7.770;2023-04-16T03:01:05;7.30;99.90
30764;DHT22;17497;51.476;7.770;2023-04-16T03:03:31;7.30;99.90
30764;DHT22;17497;51.476;7.770;2023-04-16T03:05:58;7.30;99.90
30764;DHT22;17497;51.476;7.770;2023-04-16T03:08:25;7.40;99.90
30764;DHT22;17497;51.476;7.770;2023-04-16T03:10:51;7.30;99.90
30764;DHT22;17497;51.476;7.770;2023-04-16T03:13:18;7.30;99.90
30764;DHT22;17497;51.476;7.770;2023-04-16T03:15:48;7.30;99.90
30764;DHT22;17497;51.476;7.770;2023-04-16T03:18:15;7.30;99.90
30764;DHT22;17497;51.476;7.770;2023-04-16T03:20:41;7.40;99.90
30764;DHT22;17497;51.476;7.770;2023-04-16T03:23:08;7.40;99.90
30764;DHT22;17497;51.476;7.770;2023-04-16T03:25:35;7.40;99.90
30764;DHT22;17497;51.476;7.770;2023-04-16T03:28:02;7.40;99.90
30764;DHT22;17497;51.476;7.770;2023-04-16T03:30:29;7.40;99.90
30764;DHT22;17497;51.476;7.770;2023-04-16T03:32:56;7.40;99.90
30764;DHT22;17497;51.476;7.770;2023-04-16T03:35:22;7.40;99.90
30764;DHT22;17497;51.476;7.770;2023-04-16T03:37:49;7.40;99.90
30764;DHT22;17497;51.476;7.770;2023-04-16T03:40:17;7.40;99.90
30764;DHT22;17497;51.476;7.770;2023-04-16T03:42:43;7.40;99.90
30764;DHT22;17497;51.476;7.770;2023-04-16T03:45:10;7.40;99.90
30764;DHT22;17497;51.476;7.770;2023-04-16T03:47:36;7.40;99.90
30764;DHT22;17497;51.476;7.770;2023-04-16T03:50:03;7.50;99.90
30764;DHT22;17497;51.476;7.770;2023-04-16T03:52:30;7.50;99.90
30764;DHT22;17497;51.476;7.770;2023-04-16T03:54:56;7.50;99.90
30764;DHT22;17497;51.476;7.770;2023-04-16T03:57:23;7.50;99.90
30764;DHT22;17497;51.476;7.770;2023-04-16T03:59:50;7.50;99.90
30764;DHT22;17497;51.476;7.770;2023-04-16T04:02:16;7.50;99.90
30764;DHT22;17497;51.476;7.770;2023-04-16T04:04:43;7.50;99.90
30764;DHT22;17497;51.476;7.770;2023-04-16T04:07:10;7.60;99.90
30764;DHT22;17497;51.476;7.770;2023-04-16T04:09:36;7.60;99.90
30764;DHT22;17497;51.476;7.770;2023-04-16T04:12:03;7.60;99.90
30764;DHT22;17497;51.476;7.770;2023-04-16T04:14:29;7.60;99.90
30764;DHT22;17497;51.476;7.770;2023-04-16T04:16:56;7.60;99.90
30764;DHT22;17497;51.476;7.770;2023-04-16T04:19:23;7.60;99.90
30764;DHT22;17497;51.476;7.770;2023-04-16T04:21:49;7.60;99.90
30764;DHT22;17497;51.476;7.770;2023-04-16T04:24:16;7.60;99.90
30764;DHT22;17497;51.476;7.770;2023-04-16T04:26:42;7.60;99.90
30764;DHT22;17497;51.476;7.770;2023-04-16T04:29:09;7.70;99.90
30764;DHT22;17497;51.476;7.770;2023-04-16T04:31:36;7.70;99.90
30764;DHT22;17497;51.476;7.770;2023-04-16T04:34:03;7.60;99.90
30764;DHT22;17497;51.476;7.770;2023-04-16T04:36:29;7.70;99.90
30764;DHT22;17497;51.476;7.770;2023-04-16T04:38:56;7.70;99.90
30764;DHT22;17497;51.476;7.770;2023-04-16T04:41:23;7.60;99.90
30764;DHT22;17497;51.476;7.770;2023-04-16T04:43:49;7.60;99.90
30764;DHT22;17497;51.476;7.770;2023-04-16T04:46:16;7.60;99.90
30764;DHT22;17497;51.476;7.770;2023-04-16T04:48:43;7.60;99.90
30764;DHT22;17497;51.476;7.770;2023-04-16T04:51:09;7.60;99.90
30764;DHT22;17497;51.476;7.770;2023-04-16T04:53:36;7.60;99.90
30764;DHT22;17497;51.476;7.770;2023-04-16T04:56:02;7.60;99.90
30764;DHT22;17497;51.476;7.770;2023-04-16T04:58:38;7.60;99.90
30764;DHT22;17497;51.476;7.770;2023-04-16T05:01:05;7.60;99.90
30764;DHT22;17497;51.476;7.770;2023-04-16T05:03:32;7.60;99.90
30764;DHT22;17497;51.476;7.770;2023-04-16T05:05:58;7.70;99.90
30764;DHT22;17497;51.476;7.770;2023-04-16T05:08:25;7.60;99.90
30764;DHT22;17497;51.476;7.770;2023-04-16T05:10:52;7.60;99.90
30764;DHT22;17497;51.476;7.770;2023-04-16T05:13:19;7.70;99.90
30764;DHT22;17497;51.476;7.770;2023-04-16T05:15:45;7.70;99.90
30764;DHT22;17497;51.476;7.770;2023-04-16T05:18:12;7.70;99.90
30764;DHT22;17497;51.476;7.770;2023-04-16T05:20:38;7.70;99.90
30764;DHT22;17497;51.476;7.770;2023-04-16T05:23:05;7.70;99.90
30764;DHT22;17497;51.476;7.770;2023-04-16T05:25:32;7.70;99.90
30764;DHT22;17497;51.476;7.770;2023-04-16T05:27:58;7.70;99.90
30764;DHT22;17497;51.476;7.770;2023-04-16T05:30:25;7.70;99.90
30764;DHT22;17497;51.476;7.770;2023-04-16T05:32:52;7.70;99.90
30764;DHT22;17497;51.476;7.770;2023-04-16T05:35:18;7.70;99.90
30764;DHT22;17497;51.476;7.770;2023-04-16T05:37:45;7.80;99.90
30764;DHT22;17497;51.476;7.770;2023-04-16T05:40:12;7.80;99.90
30764;DHT22;17497;51.476;7.770;2023-04-16T05:42:39;7.80;99.90
30764;DHT22;17497;51.476;7.770;2023-04-16T05:45:06;7.70;99.90
30764;DHT22;17497;51.476;7.770;2023-04-16T05:47:33;7.80;99.90
30764;DHT22;17497;51.476;7.770;2023-04-16T05:49:59;7.80;99.90
30764;DHT22;17497;51.476;7.770;2023-04-16T05:52:26;7.90;99.90
30764;DHT22;17497;51.476;7.770;2023-04-16T05:54:53;7.90;99.90
30764;DHT22;17497;51.476;7.770;2023-04-16T05:57:19;7.90;99.90
30764;DHT22;17497;51.476;7.770;2023-04-16T05:59:46;7.90;99.90
30764;DHT22;17497;51.476;7.770;2023-04-16T06:02:12;7.90;99.90
30764;DHT22;17497;51.476;7.770;2023-04-16T06:04:39;8.00;99.90
30764;DHT22;17497;51.476;7.770;2023-04-16T06:07:06;8.10;99.90
30764;DHT22;17497;51.476;7.770;2023-04-16T06:09:32;8.10;99.90
30764;DHT22;17497;51.476;7.770;2023-04-16T06:11:59;8.10;99.90
30764;DHT22;17497;51.476;7.770;2023-04-16T06:14:26;8.10;99.90
30764;DHT22;17497;51.476;7.770;2023-04-16T06:16:53;8.20;99.90
30764;DHT22;17497;51.476;7.770;2023-04-16T06:19:19;8.20;99.90
30764;DHT22;17497;51.476;7.770;2023-04-16T06:21:46;8.30;99.90
30764;DHT22;17497;51.476;7.770;2023-04-16T06:24:13;8.30;99.90
30764;DHT22;17497;51.476;7.770;2023-04-16T06:26:39;8.20;99.90
30764;DHT22;17497;51.476;7.770;2023-04-16T06:29:06;8.40;99.90
30764;DHT22;17497;51.476;7.770;2023-04-16T06:31:33;8.40;99.90
30764;DHT22;17497;51.476;7.770;2023-04-16T06:33:59;8.40;99.90
30764;DHT22;17497;51.476;7.770;2023-04-16T06:36:26;8.40;99.90
30764;DHT22;17497;51.476;7.770;2023-04-16T06:38:54;8.40;99.90
30764;DHT22;17497;51.476;7.770;2023-04-16T06:41:21;8.40;99.90
30764;DHT22;17497;51.476;7.770;2023-04-16T06:43:48;8.40;99.90
30764;DHT22;17497;51.476;7.770;2023-04-16T06:46:15;8.30;99.90
30764;DHT22;17497;51.476;7.770;2023-04-16T06:48:42;8.30;99.90
30764;DHT22;17497;51.476;7.770;2023-04-16T06:51:08;8.30;99.90
30764;DHT22;17497;51.476;7.770;2023-04-16T06:53:35;8.30;99.90
30764;DHT22;17497;51.476;7.770;2023-04-16T06:56:03;8.30;99.90
30764;DHT22;17497;51.476;7.770;2023-04-16T06:58:29;8.30;99.90
30764;DHT22;17497;51.476;7.770;2023-04-16T07:00:56;8.30;99.90
30764;DHT22;17497;51.476;7.770;2023-04-16T07:03:22;8.30;99.90
30764;DHT22;17497;51.476;7.770;2023-04-16T07:05:49;8.30;99.90
30764;DHT22;17497;51.476;7.770;2023-04-16T07:08:16;8.30;99.90
30764;DHT22;17497;51.476;7.770;2023-04-16T07:10:42;8.30;99.90
30764;DHT22;17497;51.476;7.770;2023-04-16T07:13:09;8.40;99.90
30764;DHT22;17497;51.476;7.770;2023-04-16T07:15:36;8.30;99.90
30764;DHT22;17497;51.476;7.770;2023-04-16T07:18:02;8.40;99.90
30764;DHT22;17497;51.476;7.770;2023-04-16T07:20:29;8.40;99.90
30764;DHT22;17497;51.476;7.770;2023-04-16T07:22:56;8.30;99.90
30764;DHT22;17497;51.476;7.770;2023-04-16T07:25:24;8.40;99.90
30764;DHT22;17497;51.476;7.770;2023-04-16T07:27:52;8.40;99.90
30764;DHT22;17497;51.476;7.770;2023-04-16T07:30:18;8.40;99.90
30764;DHT22;17497;51.476;7.770;2023-04-16T07:32:45;8.30;99.90
30764;DHT22;17497;51.476;7.770;2023-04-16T07:35:12;8.50;99.90
30764;DHT22;17497;51.476;7.770;2023-04-16T07:37:38;8.50;99.90
30764;DHT22;17497;51.476;7.770;2023-04-16T07:40:05;8.50;99.90
30764;DHT22;17497;51.476;7.770;2023-04-16T07:42:32;8.50;99.90
30764;DHT22;17497;51.476;7.770;2023-04-16T07:44:58;8.60;99.90
30764;DHT22;17497;51.476;7.770;2023-04-16T07:47:25;8.60;99.90
30764;DHT22;17497;51.476;7.770;2023-04-16T07:49:52;8.70;99.90
30764;DHT22;17497;51.476;7.770;2023-04-16T07:52:19;8.60;99.90
30764;DHT22;17497;51.476;7.770;2023-04-16T07:54:46;8.70;99.90
30764;DHT22;17497;51.476;7.770;2023-04-16T07:57:12;8.70;99.90
30764;DHT22;17497;51.476;7.770;2023-04-16T07:59:39;8.80;99.90
30764;DHT22;17497;51.476;7.770;2023-04-16T08:02:06;8.70;99.90
30764;DHT22;17497;51.476;7.770;2023-04-16T08:04:34;8.80;99.90
30764;DHT22;17497;51.476;7.770;2023-04-16T08:07:01;8.80;99.90
30764;DHT22;17497;51.476;7.770;2023-04-16T08:09:27;8.80;99.90
30764;DHT22;17497;51.476;7.770;2023-04-16T08:11:54;8.80;99.90
30764;DHT22;17497;51.476;7.770;2023-04-16T08:14:20;8.90;99.90
30764;DHT22;17497;51.476;7.770;2023-04-16T08:16:48;8.90;99.90
30764;DHT22;17497;51.476;7.770;2023-04-16T08:19:14;8.90;99.90
30764;DHT22;17497;51.476;7.770;2023-04-16T08:21:41;9.00;99.90
30764;DHT22;17497;51.476;7.770;2023-04-16T08:24:07;9.00;99.90
30764;DHT22;17497;51.476;7.770;2023-04-16T08:26:34;9.00;99.90
30764;DHT22;17497;51.476;7.770;2023-04-16T08:29:00;9.00;99.90
30764;DHT22;17497;51.476;7.770;2023-04-16T08:31:27;8.90;99.90
30764;DHT22;17497;51.476;7.770;2023-04-16T08:33:54;8.90;99.90
30764;DHT22;17497;51.476;7.770;2023-04-16T08:36:20;8.80;99.90
30764;DHT22;17497;51.476;7.770;2023-04-16T08:38:47;8.60;99.90
30764;DHT22;17497;51.476;7.770;2023-04-16T08:41:14;8.50;99.90
30764;DHT22;17497;51.476;7.770;2023-04-16T08:43:41;8.50;99.90
30764;DHT22;17497;51.476;7.770;2023-04-16T08:46:10;8.60;99.90
30764;DHT22;17497;51.476;7.770;2023-04-16T08:48:36;8.70;99.90
30764;DHT22;17497;51.476;7.770;2023-04-16T08:51:04;8.80;99.90
30764;DHT22;17497;51.476;7.770;2023-04-16T08:53:58;9.00;99.90
30764;DHT22;17497;51.476;7.770;2023-04-16T08:56:22;9.10;99.90
30764;DHT22;17497;51.476;7.770;2023-04-16T08:58:50;9.20;99.90
30764;DHT22;17497;51.476;7.770;2023-04-16T09:01:17;9.20;99.90
30764;DHT22;17497;51.476;7.770;2023-04-16T09:03:45;9.10;99.90
30764;DHT22;17497;51.476;7.770;2023-04-16T09:06:13;9.10;99.90
30764;DHT22;17497;51.476;7.770;2023-04-16T09:08:40;9.00;99.90
30764;DHT22;17497;51.476;7.770;2023-04-16T09:11:06;9.20;99.90
30764;DHT22;17497;51.476;7.770;2023-04-16T09:13:33;9.30;99.90
30764;DHT22;17497;51.476;7.770;2023-04-16T09:16:00;9.40;99.90
30764;DHT22;17497;51.476;7.770;2023-04-16T09:18:26;9.50;99.90
30764;DHT22;17497;51.476;7.770;2023-04-16T09:20:53;9.40;99.90
30764;DHT22;17497;51.476;7.770;2023-04-16T09:23:21;9.30;99.90
30764;DHT22;17497;51.476;7.770;2023-04-16T09:25:48;9.30;99.90
30764;DHT22;17497;51.476;7.770;2023-04-16T09:31:12;9.40;99.90
30764;DHT22;17497;51.476;7.770;2023-04-16T09:33:39;9.40;99.90
30764;DHT22;17497;51.476;7.770;2023-04-16T09:36:05;9.70;99.90
30764;DHT22;17497;51.476;7.770;2023-04-16T09:38:47;9.80;99.90
30764;DHT22;17497;51.476;7.770;2023-04-16T09:41:14;9.80;99.90
30764;DHT22;17497;51.476;7.770;2023-04-16T09:43:57;9.70;99.90
30764;DHT22;17497;51.476;7.770;2023-04-16T09:46:32;9.60;99.90
30764;DHT22;17497;51.476;7.770;2023-04-16T09:49:15;9.60;99.90
30764;DHT22;17497;51.476;7.770;2023-04-16T09:51:42;9.70;99.90
30764;DHT22;17497;51.476;7.770;2023-04-16T09:54:09;9.80;99.90
30764;DHT22;17497;51.476;7.770;2023-04-16T09:56:40;9.90;99.90
30764;DHT22;17497;51.476;7.770;2023-04-16T09:59:07;10.00;99.90
30764;DHT22;17497;51.476;7.770;2023-04-16T10:01:35;10.10;99.90
30764;DHT22;17497;51.476;7.770;2023-04-16T10:04:02;10.00;99.90
30764;DHT22;17497;51.476;7.770;2023-04-16T10:06:32;10.10;99.90
30764;DHT22;17497;51.476;7.770;2023-04-16T10:08:58;10.20;99.90
30764;DHT22;17497;51.476;7.770;2023-04-16T10:11:25;10.20;99.90
30764;DHT22;17497;51.476;7.770;2023-04-16T10:13:52;10.10;99.90
30764;DHT22;17497;51.476;7.770;2023-04-16T10:16:19;10.30;99.90
30764;DHT22;17497;51.476;7.770;2023-04-16T10:18:47;10.70;99.90
30764;DHT22;17497;51.476;7.770;2023-04-16T10:21:14;11.10;99.90
30764;DHT22;17497;51.476;7.770;2023-04-16T10:23:42;11.20;99.90
30764;DHT22;17497;51.476;7.770;2023-04-16T10:26:08;11.40;99.90
30764;DHT22;17497;51.476;7.770;2023-04-16T10:28:35;11.50;99.90
30764;DHT22;17497;51.476;7.770;2023-04-16T10:31:03;11.40;99.90
30764;DHT22;17497;51.476;7.770;2023-04-16T10:33:31;10.90;99.90
30764;DHT22;17497;51.476;7.770;2023-04-16T10:38:58;11.00;99.90
30764;DHT22;17497;51.476;7.770;2023-04-16T10:41:25;11.10;99.90
30764;DHT22;17497;51.476;7.770;2023-04-16T10:44:04;11.10;99.90
30764;DHT22;17497;51.476;7.770;2023-04-16T10:46:32;11.10;99.90
30764;DHT22;17497;51.476;7.770;2023-04-16T10:48:59;11.20;99.90
30764;DHT22;17497;51.476;7.770;2023-04-16T10:51:33;11.10;99.90
30764;DHT22;17497;51.476;7.770;2023-04-16T10:54:17;11.20;99.90
30764;DHT22;17497;51.476;7.770;2023-04-16T10:56:45;11.30;99.90
30764;DHT22;17497;51.476;7.770;2023-04-16T10:59:12;11.50;99.90
30764;DHT22;17497;51.476;7.770;2023-04-16T11:01:42;11.80;99.90
30764;DHT22;17497;51.476;7.770;2023-04-16T11:04:55;11.90;99.90
30764;DHT22;17497;51.476;7.770;2023-04-16T11:07:14;11.60;99.90
30764;DHT22;17497;51.476;7.770;2023-04-16T11:09:57;11.40;99.90
30764;DHT22;17497;51.476;7.770;2023-04-16T11:12:26;11.70;99.90
30764;DHT22;17497;51.476;7.770;2023-04-16T11:14:58;11.70;99.90
30764;DHT22;17497;51.476;7.770;2023-04-16T11:17:30;11.80;99.90
30764;DHT22;17497;51.476;7.770;2023-04-16T11:19:57;11.70;99.90
30764;DHT22;17497;51.476;7.770;2023-04-16T11:22:24;11.70;99.90
30764;DHT22;17497;51.476;7.770;2023-04-16T11:24:54;11.80;99.90
30764;DHT22;17497;51.476;7.770;2023-04-16T11:27:22;11.90;99.90
30764;DHT22;17497;51.476;7.770;2023-04-16T11:29:59;11.80;99.90
30764;DHT22;17497;51.476;7.770;2023-04-16T11:32:26;11.80;99.90
30764;DHT22;17497;51.476;7.770;2023-04-16T11:34:53;11.80;99.90
30764;DHT22;17497;51.476;7.770;2023-04-16T11:37:20;12.00;99.90
30764;DHT22;17497;51.476;7.770;2023-04-16T11:39:48;12.20;99.90
30764;DHT22;17497;51.476;7.770;2023-04-16T11:42:18;12.40;99.90
30764;DHT22;17497;51.476;7.770;2023-04-16T11:44:45;12.60;99.90
30764;DHT22;17497;51.476;7.770;2023-04-16T11:47:12;12.70;99.90
30764;DHT22;17497;51.476;7.770;2023-04-16T11:49:39;12.90;99.90
30764;DHT22;17497;51.476;7.770;2023-04-16T11:52:05;12.90;99.90
30764;DHT22;17497;51.476;7.770;2023-04-16T11:54:32;12.60;99.90
30764;DHT22;17497;51.476;7.770;2023-04-16T11:57:00;12.50;99.90
30764;DHT22;17497;51.476;7.770;2023-04-16T11:59:29;12.60;99.90
30764;DHT22;17497;51.476;7.770;2023-04-16T12:01:56;12.70;99.90
30764;DHT22;17497;51.476;7.770;2023-04-16T12:04:25;12.80;99.90
30764;DHT22;17497;51.476;7.770;2023-04-16T12:07:12;12.80;99.90
30764;DHT22;17497;51.476;7.770;2023-04-16T12:09:42;12.70;99.90
30764;DHT22;17497;51.476;7.770;2023-04-16T12:12:28;12.50;99.90
30764;DHT22;17497;51.476;7.770;2023-04-16T12:14:56;12.40;99.90
30764;DHT22;17497;51.476;7.770;2023-04-16T12:17:25;12.30;99.90
30764;DHT22;17497;51.476;7.770;2023-04-16T12:19:55;12.10;99.90
30764;DHT22;17497;51.476;7.770;2023-04-16T12:22:29;12.10;99.90
30764;DHT22;17497;51.476;7.770;2023-04-16T12:27:53;12.00;99.90
30764;DHT22;17497;51.476;7.770;2023-04-16T12:30:21;11.90;99.90
30764;DHT22;17497;51.476;7.770;2023-04-16T12:32:49;11.90;99.90
30764;DHT22;17497;51.476;7.770;2023-04-16T12:35:32;11.70;99.90
30764;DHT22;17497;51.476;7.770;2023-04-16T12:37:59;11.70;99.90
30764;DHT22;17497;51.476;7.770;2023-04-16T12:40:26;11.70;99.90
30764;DHT22;17497;51.476;7.770;2023-04-16T12:42:52;11.70;99.90
30764;DHT22;17497;51.476;7.770;2023-04-16T12:45:20;11.70;99.90
30764;DHT22;17497;51.476;7.770;2023-04-16T12:47:47;11.70;99.90
30764;DHT22;17497;51.476;7.770;2023-04-16T12:50:15;11.60;99.90
30764;DHT22;17497;51.476;7.770;2023-04-16T12:52:42;11.70;99.90
30764;DHT22;17497;51.476;7.770;2023-04-16T12:55:09;11.70;99.90
30764;DHT22;17497;51.476;7.770;2023-04-16T12:57:35;11.80;99.90
30764;DHT22;17497;51.476;7.770;2023-04-16T13:00:11;12.00;99.90
30764;DHT22;17497;51.476;7.770;2023-04-16T13:02:41;12.00;99.90
30764;DHT22;17497;51.476;7.770;2023-04-16T13:05:08;12.20;99.90
30764;DHT22;17497;51.476;7.770;2023-04-16T13:07:35;12.50;99.90
30764;DHT22;17497;51.476;7.770;2023-04-16T13:10:02;12.60;99.90
30764;DHT22;17497;51.476;7.770;2023-04-16T13:12:28;12.70;99.90
30764;DHT22;17497;51.476;7.770;2023-04-16T13:14:55;12.90;99.90
30764;DHT22;17497;51.476;7.770;2023-04-16T13:17:22;12.80;99.90
30764;DHT22;17497;51.476;7.770;2023-04-16T13:19:48;12.80;99.90
30764;DHT22;17497;51.476;7.770;2023-04-16T13:22:15;12.70;99.90
30764;DHT22;17497;51.476;7.770;2023-04-16T13:24:42;12.50;99.90
30764;DHT22;17497;51.476;7.770;2023-04-16T13:27:08;12.40;99.90
30764;DHT22;17497;51.476;7.770;2023-04-16T13:29:35;12.20;99.90
30764;DHT22;17497;51.476;7.770;2023-04-16T13:32:02;12.10;99.90
30764;DHT22;17497;51.476;7.770;2023-04-16T13:34:28;12.00;99.90
30764;DHT22;17497;51.476;7.770;2023-04-16T13:36:55;12.00;99.90
30764;DHT22;17497;51.476;7.770;2023-04-16T13:39:22;11.90;99.90
30764;DHT22;17497;51.476;7.770;2023-04-16T13:41:49;11.90;99.90
30764;DHT22;17497;51.476;7.770;2023-04-16T13:44:16;11.80;99.90
30764;DHT22;17497;51.476;7.770;2023-04-16T13:46:43;11.90;99.90
30764;DHT22;17497;51.476;7.770;2023-04-16T13:49:13;11.90;99.90
30764;DHT22;17497;51.476;7.770;2023-04-16T13:51:41;12.10;99.90
30764;DHT22;17497;51.476;7.770;2023-04-16T13:54:08;12.20;99.90
30764;DHT22;17497;51.476;7.770;2023-04-16T13:56:35;12.30;99.90
30764;DHT22;17497;51.476;7.770;2023-04-16T13:59:02;12.50;99.90
30764;DHT22;17497;51.476;7.770;2023-04-16T14:01:28;12.60;99.90
30764;DHT22;17497;51.476;7.770;2023-04-16T14:03:55;12.70;99.90
30764;DHT22;17497;51.476;7.770;2023-04-16T14:06:22;12.80;99.90
30764;DHT22;17497;51.476;7.770;2023-04-16T14:08:49;12.90;99.90
30764;DHT22;17497;51.476;7.770;2023-04-16T14:11:15;13.00;99.90
30764;DHT22;17497;51.476;7.770;2023-04-16T14:13:42;13.00;99.90
30764;DHT22;17497;51.476;7.770;2023-04-16T14:16:09;13.10;99.90
30764;DHT22;17497;51.476;7.770;2023-04-16T14:18:36;13.10;99.90
30764;DHT22;17497;51.476;7.770;2023-04-16T14:21:07;13.10;99.90
30764;DHT22;17497;51.476;7.770;2023-04-16T14:23:34;13.20;99.90
30764;DHT22;17497;51.476;7.770;2023-04-16T14:26:01;13.40;99.90
30764;DHT22;17497;51.476;7.770;2023-04-16T14:28:29;13.40;99.90
30764;DHT22;17497;51.476;7.770;2023-04-16T14:30:55;13.40;99.90
30764;DHT22;17497;51.476;7.770;2023-04-16T14:33:22;13.40;99.90
30764;DHT22;17497;51.476;7.770;2023-04-16T14:35:49;13.00;99.90
30764;DHT22;17497;51.476;7.770;2023-04-16T14:38:16;13.10;99.90
30764;DHT22;17497;51.476;7.770;2023-04-16T14:40:43;13.10;99.90
30764;DHT22;17497;51.476;7.770;2023-04-16T14:43:10;13.10;99.90
30764;DHT22;17497;51.476;7.770;2023-04-16T14:45:36;13.10;99.90
30764;DHT22;17497;51.476;7.770;2023-04-16T14:48:04;13.30;99.90
30764;DHT22;17497;51.476;7.770;2023-04-16T14:50:32;13.30;99.90
30764;DHT22;17497;51.476;7.770;2023-04-16T14:53:01;13.40;99.90
30764;DHT22;17497;51.476;7.770;2023-04-16T14:55:28;13.40;99.90
30764;DHT22;17497;51.476;7.770;2023-04-16T14:57:54;13.40;99.90
30764;DHT22;17497;51.476;7.770;2023-04-16T15:00:22;13.50;99.90
30764;DHT22;17497;51.476;7.770;2023-04-16T15:02:49;13.40;99.90
30764;DHT22;17497;51.476;7.770;2023-04-16T15:05:16;13.10;99.90
30764;DHT22;17497;51.476;7.770;2023-04-16T15:07:42;13.00;99.90
30764;DHT22;17497;51.476;7.770;2023-04-16T15:10:11;12.90;99.90
30764;DHT22;17497;51.476;7.770;2023-04-16T15:12:38;12.90;99.90
30764;DHT22;17497;51.476;7.770;2023-04-16T15:15:05;12.80;99.90
30764;DHT22;17497;51.476;7.770;2023-04-16T15:17:32;12.70;99.90
30764;DHT22;17497;51.476;7.770;2023-04-16T15:19:59;12.60;99.90
30764;DHT22;17497;51.476;7.770;2023-04-16T15:22:26;12.60;99.90
30764;DHT22;17497;51.476;7.770;2023-04-16T15:24:53;12.50;99.90
30764;DHT22;17497;51.476;7.770;2023-04-16T15:27:19;12.50;99.90
30764;DHT22;17497;51.476;7.770;2023-04-16T15:29:46;12.60;99.90
30764;DHT22;17497;51.476;7.770;2023-04-16T15:32:14;12.50;99.90
30764;DHT22;17497;51.476;7.770;2023-04-16T15:34:41;12.70;99.90
30764;DHT22;17497;51.476;7.770;2023-04-16T15:37:08;12.70;99.90
30764;DHT22;17497;51.476;7.770;2023-04-16T15:39:35;12.70;99.90
30764;DHT22;17497;51.476;7.770;2023-04-16T15:42:03;12.70;99.90
30764;DHT22;17497;51.476;7.770;2023-04-16T15:44:32;12.70;99.90
30764;DHT22;17497;51.476;7.770;2023-04-16T15:46:59;12.80;99.90
30764;DHT22;17497;51.476;7.770;2023-04-16T15:49:26;12.80;99.90
30764;DHT22;17497;51.476;7.770;2023-04-16T15:51:53;12.80;99.90
30764;DHT22;17497;51.476;7.770;2023-04-16T15:54:19;12.90;99.90
30764;DHT22;17497;51.476;7.770;2023-04-16T15:56:46;12.80;99.90
30764;DHT22;17497;51.476;7.770;2023-04-16T15:59:13;12.70;99.90
30764;DHT22;17497;51.476;7.770;2023-04-16T16:01:40;12.50;99.90
30764;DHT22;17497;51.476;7.770;2023-04-16T16:04:06;12.40;99.90
30764;DHT22;17497;51.476;7.770;2023-04-16T16:06:33;12.40;99.90
30764;DHT22;17497;51.476;7.770;2023-04-16T16:09:00;12.30;99.90
30764;DHT22;17497;51.476;7.770;2023-04-16T16:11:27;12.20;99.90
30764;DHT22;17497;51.476;7.770;2023-04-16T16:13:53;12.10;99.90